Sacramento, California
Traffic Map
Current Weather Conditions
Sacramento, California
Clear
Clear
23°
Feels Like: 23°
Wind Chill: 23° Ceiling: Unl
Heat Index: 23° Visibility: 10mi
Dew Point: Wind: 16mph
Humidity: 23% Direction: 350° (N)
Pressure: 29.95in Gusts: 24mph
Raw Report DataKSAC 312053Z 35014G21KT 10SM CLR 23/01 A2995 RMK AO2 SLP142 T02280006 58013
Traffic Incident Summary
Active as of:
Severity:
Category:
InformationThere was an issue retrieving the traffic information for this location. Please try a different location or try again shortly.
Advertisements
Track Severe Weather on mobile